Kezdőlap
METAR-TAF:

METAR-TAF

Repülőterek :

Tamanrasset, Algéria

földrajzi szélesség: 22-49N, földrajzi hosszúság: 005-28E, magasság: 1377 m

Jelenlegi meteorológiai megfigyelések

A jelentés 15 perccel ezelõtt készült, 11:00 UTC
Különbözõ irányokból fújó szél 2 kt
Hőmérséklet 35°C
Páratartalom 13%
Légköri nyomás 1021 hPa
Látótávolság: 6000 m

METAR: DAAT 211100Z VRB02KT 6000 NSC 35/03 Q1021

Idő: 12:15 (11:15 UTC)

Előrejelzés

A jelentés 6 órával és 15 perccel ezelõtt készült, 05:00 UTC
Az előrejelzés 21-én 06 óra UTC és 22-én 06 óra UTC között érvényes
Déli szél 8 kt
Látótávolság: 4500 m
Száraz légköri homály
21-én 07 óra UTC és 21-én 09 óra UTC között fokozatosan kialakuló
Látótávolság: 6000 m

TAF: DAAT 210500Z 2106/2206 18008KT 4500 HZ NSC BECMG 2107/2109 6000 NSW

Meteorológiai megfigyelések és előrejelzések több, mint 4000 repülőtéren (METAR és TAF jelentéseket).

A térképen piros és sárga pontok jelzik az elérhető meteorológiai állomásokat.

Mozgassa az egeret a pont fölött, hogy megjelenjen az állomás neve.

Azután kattintson az időjárási megfigyelések és előrejelzések megtekintéséhez.

A térkép megváltoztatása: kattintson a fekete keresztel jelölt zöld gombra ráközelítéshez, a vonallal jelölt zöld gombra távolításhoz, vagy a zöld nyilakra a szomszédos térképek eléréséhez.


METAR-TAF: